Time;durP1;ratioP1;P1;durP2;ratioP2;P2;SDS_P1;SDS_P2;PMS_P1;PMS_P2;Temp;Humidity;BMP_temperature;BMP_pressure;BME280_temperature;BME280_humidity;BME280_pressure;Samples;Min_cycle;Max_cycle;Signal;HPM_P1;HPM_P2
2024/01/31 00:02:15;;;;;;;4.77;2.80;;;8.30;99.90;;;;;;5103110;28;20879;-69
2024/01/31 00:04:43;;;;;;;5.70;4.47;;;8.20;99.90;;;;;;5102629;27;20444;-69
2024/01/31 00:07:10;;;;;;;9.23;3.80;;;8.20;99.90;;;;;;5100122;28;20634;-70
2024/01/31 00:09:37;;;;;;;7.20;4.70;;;8.30;99.90;;;;;;5108898;27;20565;-69
2024/01/31 00:12:04;;;;;;;4.13;2.73;;;8.40;99.90;;;;;;5105597;27;20459;-69
2024/01/31 00:14:31;;;;;;;5.50;2.70;;;8.50;99.90;;;;;;5101610;27;20456;-72
2024/01/31 00:16:58;;;;;;;5.17;2.17;;;8.40;99.90;;;;;;5104505;27;20448;-69
2024/01/31 00:19:25;;;;;;;3.87;2.20;;;8.30;99.90;;;;;;5103295;27;20528;-70
2024/01/31 00:21:53;;;;;;;3.80;3.00;;;8.30;99.90;;;;;;5105322;27;20457;-70
2024/01/31 00:24:20;;;;;;;3.40;2.60;;;8.10;99.90;;;;;;5100384;27;20914;-70
2024/01/31 00:26:46;;;;;;;3.50;2.77;;;8.10;99.90;;;;;;5103140;28;20484;-70
2024/01/31 00:29:13;;;;;;;5.43;2.97;;;8.10;99.90;;;;;;5096724;27;20829;-70
2024/01/31 00:31:40;;;;;;;7.37;4.23;;;8.20;99.90;;;;;;5097618;27;20453;-68
2024/01/31 00:34:06;;;;;;;9.77;3.70;;;8.10;99.90;;;;;;5095674;28;20464;-70
2024/01/31 00:36:33;;;;;;;5.33;2.43;;;8.10;99.90;;;;;;5098651;27;20462;-70
2024/01/31 00:39:02;;;;;;;3.20;2.30;;;8.00;99.90;;;;;;5105988;27;20500;-70
2024/01/31 00:41:29;;;;;;;9.47;4.43;;;8.00;99.90;;;;;;5104714;28;20427;-70
2024/01/31 00:43:56;;;;;;;2.70;2.40;;;8.10;99.90;;;;;;5102695;27;20440;-70
2024/01/31 00:46:23;;;;;;;4.37;3.10;;;8.20;99.90;;;;;;5104548;28;20462;-70
2024/01/31 00:48:53;;;;;;;5.20;3.13;;;8.30;99.90;;;;;;5101491;28;20428;-69
2024/01/31 00:51:20;;;;;;;4.33;2.40;;;8.20;99.90;;;;;;5102792;27;20514;-70
2024/01/31 00:53:47;;;;;;;7.00;2.20;;;8.20;99.90;;;;;;5105127;27;20469;-69
2024/01/31 00:56:15;;;;;;;3.50;2.40;;;8.20;99.90;;;;;;5100264;28;20484;-70
2024/01/31 00:58:41;;;;;;;4.27;2.90;;;8.10;99.90;;;;;;5098890;28;20451;-71
2024/01/31 01:01:08;;;;;;;4.50;2.70;;;8.20;99.90;;;;;;5099166;27;20534;-70
2024/01/31 01:03:35;;;;;;;3.53;2.20;;;8.30;99.90;;;;;;5105163;28;20468;-70
2024/01/31 01:06:04;;;;;;;10.77;3.70;;;8.30;99.90;;;;;;5102553;27;20487;-69
2024/01/31 01:08:31;;;;;;;3.73;2.30;;;8.10;99.90;;;;;;5099866;28;20483;-70
2024/01/31 01:10:57;;;;;;;5.10;3.00;;;8.20;99.90;;;;;;5100725;28;20459;-70
2024/01/31 01:13:25;;;;;;;6.77;3.10;;;8.20;99.90;;;;;;5104532;27;20463;-70
2024/01/31 01:15:52;;;;;;;5.33;2.10;;;8.20;99.90;;;;;;5101579;27;20517;-71
2024/01/31 01:18:21;;;;;;;5.03;2.83;;;8.20;99.90;;;;;;5106560;27;20524;-70
2024/01/31 01:20:48;;;;;;;4.77;2.60;;;8.10;99.90;;;;;;5105990;27;20424;-71
2024/01/31 01:23:15;;;;;;;4.20;2.10;;;8.10;99.90;;;;;;5107456;27;20465;-70
2024/01/31 01:25:42;;;;;;;4.00;2.40;;;8.10;99.90;;;;;;5100458;28;20476;-70
2024/01/31 01:28:09;;;;;;;9.13;2.77;;;8.10;99.90;;;;;;5101322;28;20442;-71
2024/01/31 01:30:37;;;;;;;4.77;3.30;;;8.20;99.90;;;;;;5101647;28;20462;-70
2024/01/31 01:33:04;;;;;;;6.90;2.37;;;8.10;99.90;;;;;;5104753;28;20440;-69
2024/01/31 01:35:31;;;;;;;3.70;2.43;;;8.20;99.90;;;;;;5101921;27;20458;-69
2024/01/31 01:37:58;;;;;;;8.20;2.87;;;8.20;99.90;;;;;;5099745;28;20461;-69
2024/01/31 01:40:27;;;;;;;5.03;3.20;;;8.30;99.90;;;;;;5097526;28;20434;-70
2024/01/31 01:42:54;;;;;;;7.60;3.90;;;8.20;99.90;;;;;;5096555;27;20775;-69
2024/01/31 01:45:21;;;;;;;4.33;2.63;;;8.20;99.90;;;;;;5105590;27;20466;-70
2024/01/31 01:47:50;;;;;;;6.47;2.80;;;8.20;99.90;;;;;;5100235;28;20469;-70
2024/01/31 01:50:18;;;;;;;9.40;3.30;;;8.20;99.90;;;;;;5092990;28;20473;-69
2024/01/31 01:52:45;;;;;;;4.07;3.10;;;8.20;99.90;;;;;;5098371;28;20839;-70
2024/01/31 01:55:12;;;;;;;5.73;3.87;;;8.00;99.90;;;;;;5094637;28;20506;-70
2024/01/31 01:57:39;;;;;;;3.90;2.87;;;8.00;99.90;;;;;;5099728;28;20443;-70
2024/01/31 02:00:09;;;;;;;10.37;3.07;;;7.90;99.90;;;;;;5097333;28;20450;-70
2024/01/31 02:02:37;;;;;;;8.00;1.67;;;7.90;99.90;;;;;;5099492;28;20901;-70
2024/01/31 02:05:07;;;;;;;8.60;3.07;;;7.90;99.90;;;;;;5099324;28;20476;-71
2024/01/31 02:07:35;;;;;;;4.00;2.90;;;8.00;99.90;;;;;;5099064;28;21109;-70
2024/01/31 02:10:10;;;;;;;4.40;2.70;;;8.00;99.90;;;;;;5099196;28;20469;-71
2024/01/31 02:12:37;;;;;;;2.50;1.67;;;8.00;99.90;;;;;;5097723;28;20429;-69
2024/01/31 02:15:04;;;;;;;6.43;3.20;;;8.00;99.90;;;;;;5096405;28;20487;-70
2024/01/31 02:17:33;;;;;;;5.63;2.97;;;7.90;99.90;;;;;;5109190;28;20428;-70
2024/01/31 02:20:00;;;;;;;4.30;2.43;;;7.90;99.90;;;;;;5103515;27;20427;-71
2024/01/31 02:22:28;;;;;;;6.97;2.47;;;7.90;99.90;;;;;;5105978;27;20439;-70
2024/01/31 02:24:55;;;;;;;4.77;2.10;;;7.90;99.90;;;;;;5090785;28;20582;-69
2024/01/31 02:27:22;;;;;;;2.13;1.53;;;7.80;99.90;;;;;;5100604;28;20457;-70
2024/01/31 02:29:48;;;;;;;3.50;1.50;;;7.60;99.90;;;;;;5104028;27;20463;-72
2024/01/31 02:32:15;;;;;;;1.10;0.90;;;7.50;99.90;;;;;;5105538;27;20951;-70
2024/01/31 02:34:42;;;;;;;1.40;1.30;;;7.30;99.90;;;;;;5109393;27;20452;-70
2024/01/31 02:37:09;;;;;;;2.07;1.50;;;7.40;99.90;;;;;;5103049;27;20464;-71
2024/01/31 02:39:37;;;;;;;3.50;1.20;;;7.40;99.90;;;;;;5105305;27;20950;-71
2024/01/31 02:42:04;;;;;;;1.60;1.10;;;7.40;99.90;;;;;;5101750;28;20535;-71
2024/01/31 02:44:31;;;;;;;5.23;1.40;;;7.40;99.90;;;;;;5104996;28;20460;-71
2024/01/31 02:46:58;;;;;;;1.53;1.23;;;7.30;99.90;;;;;;5103605;27;20455;-71
2024/01/31 02:49:24;;;;;;;2.80;1.60;;;7.40;99.90;;;;;;5109248;27;20479;-70
2024/01/31 02:51:52;;;;;;;2.20;1.13;;;7.30;99.90;;;;;;5102831;27;20436;-71
2024/01/31 02:54:19;;;;;;;1.30;0.93;;;7.30;99.90;;;;;;5094714;27;20968;-70
2024/01/31 02:56:47;;;;;;;1.30;1.03;;;7.30;99.90;;;;;;5089307;27;20470;-69
2024/01/31 02:59:14;;;;;;;3.37;1.17;;;7.30;99.90;;;;;;5094266;27;20461;-69
2024/01/31 03:01:45;;;;;;;3.70;1.57;;;7.20;99.90;;;;;;5092592;27;21346;-69
2024/01/31 03:04:11;;;;;;;1.20;1.10;;;7.30;99.90;;;;;;5101591;27;20431;-70
2024/01/31 03:06:38;;;;;;;2.13;1.40;;;7.30;99.90;;;;;;5089505;27;20459;-70
2024/01/31 03:09:05;;;;;;;2.70;1.53;;;7.30;99.90;;;;;;5096041;27;21201;-69
2024/01/31 03:11:32;;;;;;;2.60;1.43;;;7.40;99.90;;;;;;5098809;27;20502;-70
2024/01/31 03:14:00;;;;;;;2.30;1.63;;;7.40;99.90;;;;;;5099793;28;20854;-70
2024/01/31 03:16:27;;;;;;;2.53;1.43;;;7.40;99.90;;;;;;5104849;27;20459;-71
2024/01/31 03:18:56;;;;;;;1.30;1.10;;;7.50;99.90;;;;;;5102039;28;20473;-71
2024/01/31 03:21:23;;;;;;;1.67;1.57;;;7.40;99.90;;;;;;5097261;28;20513;-70
2024/01/31 03:23:50;;;;;;;2.67;1.00;;;7.40;99.90;;;;;;5093456;28;20444;-70
2024/01/31 03:26:17;;;;;;;1.93;1.73;;;7.50;99.90;;;;;;5094575;28;20485;-70
2024/01/31 03:28:43;;;;;;;3.53;2.00;;;7.50;99.90;;;;;;5105354;27;20435;-70
2024/01/31 03:31:12;;;;;;;2.10;1.47;;;7.40;99.90;;;;;;5101264;27;20470;-70
2024/01/31 03:33:38;;;;;;;1.70;1.27;;;7.40;99.90;;;;;;5107982;28;20423;-70
2024/01/31 03:36:07;;;;;;;2.53;1.37;;;7.40;99.90;;;;;;5097723;27;20452;-70
2024/01/31 03:38:33;;;;;;;3.20;1.53;;;7.50;99.90;;;;;;5078055;28;21042;-71
2024/01/31 03:41:00;;;;;;;5.20;2.33;;;7.60;99.90;;;;;;5101431;27;20453;-71
2024/01/31 03:43:27;;;;;;;2.53;1.73;;;7.70;99.90;;;;;;5099922;28;20461;-70
2024/01/31 03:45:53;;;;;;;1.43;1.33;;;7.60;99.90;;;;;;5097319;27;22127;-70
2024/01/31 03:48:21;;;;;;;13.00;1.70;;;7.70;99.90;;;;;;5099461;27;20462;-70
2024/01/31 03:50:48;;;;;;;2.67;1.50;;;7.60;99.90;;;;;;5103351;28;20484;-70
2024/01/31 03:53:15;;;;;;;11.07;1.57;;;7.50;99.90;;;;;;5106878;27;20952;-70
2024/01/31 05:31:15;;;;;;;2.30;1.47;;;7.60;99.90;;;;;;5042171;28;20466;-70
2024/01/31 05:33:41;;;;;;;1.60;1.07;;;7.60;99.90;;;;;;5039369;28;20471;-70
2024/01/31 05:36:08;;;;;;;3.07;1.70;;;7.60;99.90;;;;;;5040355;28;20462;-70
2024/01/31 05:38:35;;;;;;;1.80;1.20;;;7.60;99.90;;;;;;5032915;28;20463;-70
2024/01/31 05:41:02;;;;;;;4.90;2.20;;;7.60;99.90;;;;;;5035246;28;20440;-69
2024/01/31 05:43:28;;;;;;;2.23;2.03;;;7.60;99.90;;;;;;5033491;28;20464;-70
2024/01/31 05:45:56;;;;;;;3.00;1.67;;;7.70;99.90;;;;;;5029557;28;20557;-71
2024/01/31 05:48:24;;;;;;;5.23;2.20;;;7.60;99.90;;;;;;5036191;28;20470;-71
2024/01/31 05:50:51;;;;;;;7.60;3.47;;;7.60;99.90;;;;;;5030947;28;20470;-70
2024/01/31 05:53:18;;;;;;;11.43;3.20;;;7.40;99.90;;;;;;5032937;28;20464;-70
2024/01/31 06:11:50;;;;;;;2.53;1.60;;;7.70;99.90;;;;;;4874634;29;20497;-70
2024/01/31 06:14:17;;;;;;;5.80;1.63;;;7.50;99.90;;;;;;4996181;28;20933;-70
2024/01/31 06:16:43;;;;;;;5.77;2.03;;;7.60;99.90;;;;;;4986360;28;20729;-70
2024/01/31 06:19:10;;;;;;;3.40;1.90;;;7.60;99.90;;;;;;4977411;28;20461;-70
2024/01/31 06:21:37;;;;;;;1.40;1.30;;;7.70;99.90;;;;;;4978496;28;20514;-70
2024/01/31 06:24:04;;;;;;;1.53;1.40;;;7.70;99.90;;;;;;4985141;28;20447;-70
2024/01/31 06:26:32;;;;;;;1.90;1.30;;;7.90;99.90;;;;;;4977482;28;20460;-69
2024/01/31 06:29:00;;;;;;;2.07;1.93;;;7.90;99.90;;;;;;4983794;28;20449;-70
2024/01/31 06:31:28;;;;;;;2.80;2.30;;;7.80;99.90;;;;;;4988803;28;20481;-70
2024/01/31 06:33:55;;;;;;;5.47;2.17;;;7.70;99.90;;;;;;4975090;28;20983;-70
2024/01/31 06:36:22;;;;;;;9.20;1.80;;;7.70;99.90;;;;;;4983418;28;20569;-69
2024/01/31 06:38:50;;;;;;;2.07;1.57;;;7.70;99.90;;;;;;4989160;28;20497;-71
2024/01/31 06:41:19;;;;;;;1.40;1.30;;;7.70;99.90;;;;;;4990640;28;21055;-72
2024/01/31 06:43:48;;;;;;;1.53;1.40;;;7.70;99.90;;;;;;5019833;28;20471;-70
2024/01/31 06:46:18;;;;;;;1.40;1.13;;;7.60;99.90;;;;;;5022567;28;21420;-70
2024/01/31 06:48:45;;;;;;;7.17;2.10;;;7.60;99.90;;;;;;5021761;28;20946;-71
2024/01/31 06:51:12;;;;;;;1.60;1.50;;;7.60;99.90;;;;;;5023530;28;21390;-71
2024/01/31 06:53:39;;;;;;;1.60;1.30;;;7.50;99.90;;;;;;5028074;28;20474;-70
2024/01/31 06:56:06;;;;;;;4.17;2.10;;;7.60;99.90;;;;;;5024449;28;20480;-71
2024/01/31 06:58:34;;;;;;;24.77;8.13;;;7.50;99.90;;;;;;5024854;28;20616;-69
2024/01/31 07:01:03;;;;;;;2.33;1.80;;;7.50;99.90;;;;;;5029540;28;21106;-69
2024/01/31 07:03:31;;;;;;;4.00;1.40;;;7.50;99.90;;;;;;5026209;28;20460;-70
2024/01/31 07:05:58;;;;;;;1.47;1.37;;;7.50;99.90;;;;;;5029241;28;20470;-69
2024/01/31 07:08:25;;;;;;;1.70;1.40;;;7.60;99.90;;;;;;5020918;28;20438;-70
2024/01/31 07:10:52;;;;;;;1.80;1.53;;;7.70;99.90;;;;;;5019123;28;20552;-70
2024/01/31 07:13:18;;;;;;;3.57;1.37;;;7.70;99.90;;;;;;5026992;28;21027;-71
2024/01/31 07:15:45;;;;;;;1.87;1.67;;;7.70;99.90;;;;;;5030725;28;20484;-70
2024/01/31 07:18:14;;;;;;;3.93;1.20;;;7.60;99.90;;;;;;5023310;28;20443;-71
2024/01/31 07:20:43;;;;;;;1.37;1.17;;;7.60;99.90;;;;;;5028706;28;21034;-70
2024/01/31 07:23:10;;;;;;;2.43;1.67;;;7.60;99.90;;;;;;5023699;28;20511;-70
2024/01/31 07:25:39;;;;;;;1.60;1.13;;;7.50;99.90;;;;;;5028909;28;20568;-70
2024/01/31 07:28:07;;;;;;;5.13;1.63;;;7.70;99.90;;;;;;5029629;28;20443;-70
2024/01/31 07:30:34;;;;;;;2.97;2.17;;;7.80;99.90;;;;;;5025113;28;20446;-70
2024/01/31 07:33:01;;;;;;;7.60;1.43;;;7.70;99.90;;;;;;5026471;28;20489;-71
2024/01/31 07:35:28;;;;;;;3.93;1.53;;;7.70;99.90;;;;;;5030007;28;20461;-71
2024/01/31 07:37:56;;;;;;;2.10;1.43;;;7.70;99.90;;;;;;5029132;28;20443;-71
2024/01/31 07:40:23;;;;;;;1.90;1.70;;;7.60;99.90;;;;;;5029609;28;21060;-70
2024/01/31 07:42:50;;;;;;;2.50;2.17;;;7.60;99.90;;;;;;5026736;28;20915;-69
2024/01/31 07:45:16;;;;;;;3.97;2.60;;;7.60;99.90;;;;;;5025339;28;20530;-70
2024/01/31 07:47:43;;;;;;;3.00;2.13;;;7.60;99.90;;;;;;5024224;28;20431;-74
2024/01/31 07:50:13;;;;;;;7.53;2.77;;;7.70;99.90;;;;;;5030988;28;20875;-69
2024/01/31 07:52:40;;;;;;;5.27;3.03;;;7.70;99.90;;;;;;5029146;28;20558;-69
2024/01/31 07:55:10;;;;;;;1.77;1.57;;;7.60;99.90;;;;;;5033047;28;20466;-70
2024/01/31 07:57:37;;;;;;;2.80;2.60;;;7.60;99.90;;;;;;5032612;28;20483;-71
2024/01/31 08:00:13;;;;;;;3.73;3.23;;;7.60;99.90;;;;;;5063975;22;20484;-70
2024/01/31 08:02:44;;;;;;;3.10;2.80;;;7.70;99.90;;;;;;5047041;28;20430;-70
2024/01/31 08:05:11;;;;;;;4.17;3.87;;;7.70;99.90;;;;;;5048954;28;20484;-70
2024/01/31 08:07:43;;;;;;;5.33;3.53;;;7.70;99.90;;;;;;5050938;28;20438;-70
2024/01/31 08:10:12;;;;;;;3.30;3.00;;;7.60;99.90;;;;;;5047751;28;20552;-69
2024/01/31 08:12:39;;;;;;;4.83;3.00;;;7.70;99.90;;;;;;5046219;28;20476;-70
2024/01/31 08:15:09;;;;;;;4.87;2.83;;;7.60;99.90;;;;;;5041143;28;20562;-70
2024/01/31 08:17:36;;;;;;;7.37;3.20;;;7.50;99.90;;;;;;5048791;28;20440;-68
2024/01/31 08:20:04;;;;;;;2.63;2.10;;;7.50;99.90;;;;;;5047885;28;20485;-69
2024/01/31 08:22:31;;;;;;;5.03;2.77;;;7.60;99.90;;;;;;5044870;28;20482;-70
2024/01/31 08:24:58;;;;;;;3.07;2.50;;;7.60;99.90;;;;;;5048009;28;20541;-70
2024/01/31 08:27:26;;;;;;;2.53;1.97;;;7.70;99.90;;;;;;5043440;28;20459;-70
2024/01/31 08:29:53;;;;;;;3.73;2.63;;;7.60;99.90;;;;;;5044144;28;20478;-70
2024/01/31 08:32:19;;;;;;;4.33;3.30;;;7.60;99.90;;;;;;5047145;28;20450;-70
2024/01/31 08:34:49;;;;;;;2.30;1.97;;;7.50;99.90;;;;;;5047123;28;20442;-71
2024/01/31 08:37:16;;;;;;;5.63;2.70;;;7.40;99.90;;;;;;5047229;28;20449;-71
2024/01/31 08:39:42;;;;;;;4.60;3.13;;;7.40;99.90;;;;;;5047193;28;20470;-70
2024/01/31 08:42:09;;;;;;;17.60;2.67;;;7.50;99.90;;;;;;5042907;28;20431;-70
2024/01/31 08:44:37;;;;;;;10.53;2.40;;;7.50;99.90;;;;;;5045977;28;20455;-70
2024/01/31 08:47:05;;;;;;;4.50;3.37;;;7.60;99.90;;;;;;5044107;28;20812;-71
2024/01/31 08:49:31;;;;;;;10.33;2.77;;;7.70;99.90;;;;;;5048854;28;20466;-70
2024/01/31 08:51:58;;;;;;;9.97;3.83;;;7.70;99.90;;;;;;5049633;28;20450;-70
2024/01/31 08:54:25;;;;;;;19.23;3.73;;;7.80;99.90;;;;;;5049329;28;20945;-71
2024/01/31 08:56:52;;;;;;;2.97;2.67;;;7.80;99.90;;;;;;5048063;28;20471;-70
2024/01/31 08:59:19;;;;;;;6.40;3.70;;;7.60;99.90;;;;;;5048922;28;20473;-70
2024/01/31 09:01:49;;;;;;;4.40;3.90;;;7.70;99.90;;;;;;5048284;28;20430;-70
2024/01/31 09:04:16;;;;;;;4.43;2.23;;;7.80;99.90;;;;;;5050382;28;20434;-70
2024/01/31 09:06:42;;;;;;;2.70;2.50;;;7.90;99.90;;;;;;5043992;28;20450;-71
2024/01/31 09:09:09;;;;;;;3.83;2.23;;;7.80;99.90;;;;;;5047898;28;20502;-70
2024/01/31 09:11:36;;;;;;;4.50;2.90;;;7.80;99.90;;;;;;5049098;28;20483;-70
2024/01/31 09:14:03;;;;;;;3.00;2.60;;;7.80;99.90;;;;;;5048201;28;20479;-70
2024/01/31 09:16:30;;;;;;;5.00;3.13;;;7.90;99.90;;;;;;5037103;28;21087;-70
2024/01/31 09:18:58;;;;;;;3.03;2.50;;;7.80;99.90;;;;;;5042116;28;20441;-70
2024/01/31 09:21:27;;;;;;;3.20;2.47;;;7.90;99.90;;;;;;5047490;28;20436;-70
2024/01/31 09:23:53;;;;;;;6.03;2.70;;;7.90;99.90;;;;;;5045572;28;20464;-70
2024/01/31 09:26:20;;;;;;;7.60;3.33;;;7.90;99.90;;;;;;5047957;28;20472;-69
2024/01/31 09:28:47;;;;;;;6.13;2.97;;;8.00;99.90;;;;;;5044284;28;20454;-69
2024/01/31 09:31:20;;;;;;;3.60;2.90;;;8.00;99.90;;;;;;5045120;28;20550;-69
2024/01/31 09:33:47;;;;;;;4.30;2.43;;;8.10;99.90;;;;;;5048092;28;20460;-70
2024/01/31 09:36:15;;;;;;;5.20;2.87;;;8.00;99.90;;;;;;5052063;28;20482;-70
2024/01/31 09:38:43;;;;;;;3.00;2.37;;;8.10;99.90;;;;;;5043415;28;20438;-70
2024/01/31 09:41:10;;;;;;;3.00;2.00;;;8.10;99.90;;;;;;5045210;28;20468;-70
2024/01/31 09:43:37;;;;;;;4.57;2.90;;;8.20;99.90;;;;;;5036684;28;20437;-71
2024/01/31 09:46:05;;;;;;;2.67;1.90;;;8.20;99.90;;;;;;5050525;28;20471;-69
2024/01/31 09:48:33;;;;;;;8.27;3.73;;;8.30;99.90;;;;;;5040977;28;20471;-70
2024/01/31 09:51:02;;;;;;;3.63;2.63;;;8.50;99.90;;;;;;5045881;28;20455;-70
2024/01/31 09:53:36;;;;;;;3.37;2.50;;;8.50;99.90;;;;;;5044195;28;20908;-70
2024/01/31 09:56:04;;;;;;;7.37;2.70;;;8.50;99.90;;;;;;5046228;28;20502;-70
2024/01/31 09:58:30;;;;;;;4.07;2.60;;;8.50;99.90;;;;;;5042080;28;20517;-70
2024/01/31 10:00:59;;;;;;;7.00;3.37;;;8.60;99.90;;;;;;5049093;28;20465;-69
2024/01/31 10:03:26;;;;;;;4.33;3.93;;;8.40;99.90;;;;;;5048442;28;20452;-70
2024/01/31 10:05:53;;;;;;;6.40;3.63;;;8.40;99.90;;;;;;5046794;28;20577;-70
2024/01/31 10:08:20;;;;;;;4.00;2.43;;;8.60;99.90;;;;;;5042988;28;20534;-70
2024/01/31 10:10:48;;;;;;;11.13;2.87;;;8.70;99.90;;;;;;5044670;28;20501;-70
2024/01/31 10:13:17;;;;;;;10.10;3.93;;;8.80;99.90;;;;;;5045403;28;21152;-70
2024/01/31 10:15:47;;;;;;;5.33;3.33;;;8.60;99.90;;;;;;5042971;28;20451;-71
2024/01/31 10:18:15;;;;;;;6.70;2.87;;;8.60;99.90;;;;;;5046059;28;20489;-71
2024/01/31 10:20:44;;;;;;;5.83;3.77;;;8.70;99.90;;;;;;5049917;28;20963;-71
2024/01/31 10:23:14;;;;;;;5.50;3.40;;;8.80;99.90;;;;;;5049288;28;20947;-70
2024/01/31 10:25:41;;;;;;;10.07;3.53;;;8.80;99.90;;;;;;5044458;28;20460;-71
2024/01/31 10:28:09;;;;;;;7.03;3.40;;;8.90;99.90;;;;;;5044166;28;20426;-72
2024/01/31 10:30:40;;;;;;;7.27;4.47;;;8.90;99.90;;;;;;5045188;28;20448;-71
2024/01/31 10:33:08;;;;;;;6.17;3.30;;;9.00;99.90;;;;;;5047056;28;20483;-70
2024/01/31 10:35:36;;;;;;;3.07;2.70;;;9.00;99.90;;;;;;5041471;28;20605;-69
2024/01/31 10:38:03;;;;;;;3.97;2.83;;;9.00;99.90;;;;;;5048898;28;20466;-69
2024/01/31 10:40:34;;;;;;;4.33;3.30;;;9.00;99.90;;;;;;5048938;28;20451;-69
2024/01/31 10:43:02;;;;;;;8.13;3.17;;;8.80;99.90;;;;;;5050094;28;20501;-70
2024/01/31 10:45:31;;;;;;;5.87;3.27;;;8.90;99.90;;;;;;5051518;28;20501;-70
2024/01/31 10:47:57;;;;;;;4.50;2.73;;;9.00;99.90;;;;;;5047147;28;20466;-70
2024/01/31 10:50:24;;;;;;;6.50;3.13;;;8.80;99.90;;;;;;5052092;28;20451;-72
2024/01/31 10:52:52;;;;;;;4.73;3.90;;;8.80;99.90;;;;;;5048723;28;20461;-70
2024/01/31 10:55:22;;;;;;;4.53;3.47;;;9.00;99.90;;;;;;5048490;28;20457;-69
2024/01/31 10:57:49;;;;;;;4.67;2.90;;;9.10;99.90;;;;;;5046787;28;20466;-69
2024/01/31 11:00:25;;;;;;;8.53;4.53;;;9.00;99.90;;;;;;5050347;28;20470;-70
2024/01/31 11:02:53;;;;;;;2.10;1.90;;;9.10;99.90;;;;;;5045003;28;20518;-70
2024/01/31 11:05:20;;;;;;;3.83;2.73;;;8.80;99.90;;;;;;5047522;28;20990;-70
2024/01/31 11:07:47;;;;;;;4.50;3.57;;;8.70;99.90;;;;;;5048179;28;20439;-70
2024/01/31 11:10:17;;;;;;;6.27;3.13;;;8.90;99.90;;;;;;5051208;28;20445;-70
2024/01/31 11:12:43;;;;;;;7.20;4.17;;;8.80;99.90;;;;;;5046767;28;20830;-70
2024/01/31 11:15:10;;;;;;;6.93;4.10;;;9.00;99.90;;;;;;5048875;28;20782;-70
2024/01/31 11:17:43;;;;;;;5.60;3.20;;;8.90;99.90;;;;;;5046131;28;20502;-70
2024/01/31 11:20:14;;;;;;;8.17;3.40;;;8.80;99.90;;;;;;5047231;28;20477;-71
2024/01/31 11:22:41;;;;;;;4.47;3.33;;;9.00;99.90;;;;;;5043473;28;20510;-71
2024/01/31 11:25:09;;;;;;;7.53;3.57;;;9.10;99.90;;;;;;5052483;28;20483;-69
2024/01/31 11:27:36;;;;;;;5.70;3.27;;;9.30;99.90;;;;;;5045706;28;20551;-71
2024/01/31 11:30:03;;;;;;;5.40;3.30;;;9.30;99.90;;;;;;5046784;28;20441;-71
2024/01/31 11:32:30;;;;;;;6.80;3.70;;;9.20;99.90;;;;;;5049264;28;20815;-71
2024/01/31 11:35:04;;;;;;;10.97;4.57;;;9.20;99.90;;;;;;5052179;28;20734;-72
2024/01/31 11:37:33;;;;;;;4.53;2.67;;;9.20;99.90;;;;;;5048723;28;20979;-71
2024/01/31 11:39:59;;;;;;;4.73;3.33;;;9.20;99.90;;;;;;5046998;28;20430;-70
2024/01/31 11:42:26;;;;;;;5.67;4.00;;;9.30;99.90;;;;;;5042449;28;20460;-70
2024/01/31 11:44:53;;;;;;;10.60;5.13;;;9.40;99.90;;;;;;5052289;28;20470;-70
2024/01/31 11:47:20;;;;;;;6.33;3.57;;;9.40;99.90;;;;;;5045214;28;20831;-70
2024/01/31 11:49:46;;;;;;;4.40;2.83;;;9.50;99.90;;;;;;5047355;28;20434;-70
2024/01/31 11:52:13;;;;;;;8.03;3.90;;;9.40;99.90;;;;;;5048351;28;20454;-70
2024/01/31 11:54:41;;;;;;;9.70;4.40;;;9.40;99.90;;;;;;5045727;28;20836;-70
2024/01/31 11:57:08;;;;;;;6.73;2.37;;;9.40;99.90;;;;;;5040597;28;20550;-70
2024/01/31 11:59:35;;;;;;;5.30;2.40;;;9.30;99.90;;;;;;5048158;28;20475;-70
2024/01/31 12:02:02;;;;;;;3.83;2.90;;;9.30;99.90;;;;;;5041838;28;20468;-70
2024/01/31 12:04:29;;;;;;;6.47;3.60;;;9.40;99.90;;;;;;5048918;28;20624;-70
2024/01/31 12:07:04;;;;;;;7.80;3.93;;;9.60;99.90;;;;;;5045920;28;20461;-70
2024/01/31 12:09:31;;;;;;;4.17;2.53;;;9.50;99.90;;;;;;5046449;28;21021;-71
2024/01/31 12:11:59;;;;;;;6.17;3.23;;;9.50;99.90;;;;;;5047783;28;20471;-71
2024/01/31 12:14:26;;;;;;;9.80;5.27;;;9.50;99.90;;;;;;5047145;28;20466;-71
2024/01/31 12:16:53;;;;;;;4.87;3.10;;;9.60;99.90;;;;;;5048025;28;20674;-69
2024/01/31 12:19:20;;;;;;;3.73;3.43;;;9.70;99.90;;;;;;5043954;28;20434;-69
2024/01/31 12:21:47;;;;;;;4.10;3.43;;;9.80;99.90;;;;;;5046895;28;20810;-69
2024/01/31 12:24:13;;;;;;;3.80;3.00;;;9.80;99.90;;;;;;5050162;28;20430;-70
2024/01/31 12:26:40;;;;;;;7.10;3.10;;;9.80;99.90;;;;;;5043613;28;20488;-70
2024/01/31 12:29:08;;;;;;;10.63;3.67;;;9.80;99.90;;;;;;5042566;28;20485;-70
2024/01/31 12:31:35;;;;;;;12.10;4.00;;;9.60;99.90;;;;;;5047322;28;20479;-70
2024/01/31 12:34:02;;;;;;;4.90;3.43;;;9.40;99.90;;;;;;5048379;28;20922;-70
2024/01/31 12:36:29;;;;;;;5.33;2.83;;;9.10;99.90;;;;;;5045470;28;20485;-70
2024/01/31 12:38:55;;;;;;;6.30;3.83;;;9.20;99.90;;;;;;5045835;28;20434;-70
2024/01/31 12:41:22;;;;;;;6.67;3.47;;;9.20;99.90;;;;;;5046718;28;20439;-70
2024/01/31 12:43:49;;;;;;;6.10;3.77;;;9.20;99.90;;;;;;5043779;28;20438;-70
2024/01/31 12:46:17;;;;;;;9.60;3.13;;;9.20;99.90;;;;;;5043454;28;21054;-70
2024/01/31 12:48:44;;;;;;;8.83;4.20;;;9.20;99.90;;;;;;5046293;28;20475;-69
2024/01/31 12:51:10;;;;;;;11.80;4.30;;;9.20;99.90;;;;;;5048617;28;20470;-70
2024/01/31 12:53:37;;;;;;;7.00;3.70;;;9.20;99.90;;;;;;5044847;28;20478;-69
2024/01/31 12:56:05;;;;;;;6.93;4.03;;;9.50;99.90;;;;;;5027242;28;20494;-70
2024/01/31 12:58:31;;;;;;;9.47;4.00;;;9.70;99.90;;;;;;5043572;28;20477;-69
2024/01/31 13:00:58;;;;;;;5.23;3.23;;;9.60;99.90;;;;;;5045178;28;20923;-71
2024/01/31 13:03:26;;;;;;;9.93;5.77;;;9.50;99.90;;;;;;5047677;28;20458;-69
2024/01/31 13:05:53;;;;;;;4.07;2.73;;;9.50;99.90;;;;;;5039918;28;20905;-70
2024/01/31 13:08:19;;;;;;;8.90;3.73;;;9.50;99.90;;;;;;5041540;28;20566;-69
2024/01/31 13:10:46;;;;;;;4.27;2.30;;;9.50;99.90;;;;;;5050189;28;20514;-70
2024/01/31 13:13:13;;;;;;;5.23;3.40;;;9.70;99.90;;;;;;5046409;28;21275;-70
2024/01/31 13:15:40;;;;;;;5.20;2.87;;;9.70;99.90;;;;;;5045969;28;20488;-71
2024/01/31 13:18:06;;;;;;;8.00;3.50;;;9.80;99.90;;;;;;5039829;28;20461;-70
2024/01/31 13:20:35;;;;;;;4.27;2.50;;;9.90;99.90;;;;;;5042595;28;21285;-70
2024/01/31 13:23:01;;;;;;;7.53;4.70;;;9.80;99.90;;;;;;5043717;28;20454;-70
2024/01/31 13:25:29;;;;;;;11.97;8.00;;;9.50;99.90;;;;;;5047313;28;20469;-72
2024/01/31 13:27:56;;;;;;;12.33;4.03;;;9.60;99.90;;;;;;5042440;28;20463;-70
2024/01/31 13:30:21;;;;;;;14.90;4.30;;;9.60;99.90;;;;;;5044076;28;20460;-69
2024/01/31 13:32:48;;;;;;;5.27;2.77;;;9.50;99.90;;;;;;5045802;28;20482;-70
2024/01/31 13:35:15;;;;;;;4.60;3.30;;;9.50;99.90;;;;;;5048523;28;20217;-70
2024/01/31 13:37:43;;;;;;;6.27;3.10;;;9.30;99.90;;;;;;5046986;28;20473;-70
2024/01/31 13:40:10;;;;;;;3.57;2.93;;;9.20;99.90;;;;;;5048814;28;20898;-70
2024/01/31 13:42:37;;;;;;;5.80;3.17;;;9.10;99.90;;;;;;5038595;28;20460;-71
2024/01/31 13:45:04;;;;;;;7.50;3.53;;;9.30;99.90;;;;;;5048530;28;20475;-71
2024/01/31 13:47:31;;;;;;;3.57;2.37;;;9.20;99.90;;;;;;5045084;28;20438;-70
2024/01/31 13:49:58;;;;;;;5.33;3.90;;;9.10;99.90;;;;;;5051966;28;20438;-70
2024/01/31 13:52:24;;;;;;;4.20;2.70;;;9.00;99.90;;;;;;5046192;28;20833;-70
2024/01/31 13:54:52;;;;;;;6.10;3.63;;;9.00;99.90;;;;;;5045198;28;20979;-71
2024/01/31 13:57:19;;;;;;;2.47;2.27;;;9.00;99.90;;;;;;5043948;28;20464;-69
2024/01/31 14:07:32;;;;;;;4.40;3.27;;;8.70;99.90;;;;;;3365091;26;20538;-71
2024/01/31 14:10:00;;;;;;;2.97;2.30;;;8.80;99.90;;;;;;5031193;28;20452;-72
2024/01/31 14:12:27;;;;;;;5.60;3.30;;;8.60;99.90;;;;;;5033581;28;20949;-71
2024/01/31 14:14:55;;;;;;;4.70;3.20;;;8.60;99.90;;;;;;5034056;28;20456;-70
2024/01/31 14:17:21;;;;;;;2.67;2.17;;;8.50;99.90;;;;;;5030065;28;20462;-71
2024/01/31 14:19:48;;;;;;;6.50;3.97;;;8.60;99.90;;;;;;5028780;28;20460;-71
2024/01/31 14:22:15;;;;;;;4.70;2.90;;;8.50;99.90;;;;;;5029259;28;20483;-70
2024/01/31 14:24:42;;;;;;;4.13;2.83;;;8.60;99.90;;;;;;5029307;28;20461;-71
2024/01/31 14:27:10;;;;;;;4.20;2.30;;;8.70;99.90;;;;;;5019288;28;20464;-71
2024/01/31 14:29:38;;;;;;;3.10;2.83;;;8.50;99.90;;;;;;5025922;28;20460;-71
2024/01/31 14:32:05;;;;;;;4.77;4.37;;;8.50;99.90;;;;;;5029896;28;20512;-71
2024/01/31 14:34:32;;;;;;;3.37;2.60;;;8.50;99.90;;;;;;5028655;28;20458;-70
2024/01/31 14:36:59;;;;;;;7.60;2.47;;;8.50;99.90;;;;;;5025198;28;20515;-70
2024/01/31 14:39:26;;;;;;;5.07;2.70;;;8.50;99.90;;;;;;5026834;28;20495;-71
2024/01/31 14:41:53;;;;;;;4.17;3.53;;;8.50;99.90;;;;;;5028025;28;20448;-70
2024/01/31 14:44:21;;;;;;;4.40;2.20;;;8.40;99.90;;;;;;5025386;28;20767;-71
2024/01/31 14:46:48;;;;;;;6.13;4.07;;;8.50;99.90;;;;;;5023082;28;20466;-71
2024/01/31 14:49:15;;;;;;;5.30;3.63;;;8.40;99.90;;;;;;5023690;28;20464;-71
2024/01/31 14:51:42;;;;;;;5.67;3.23;;;8.40;99.90;;;;;;5022833;28;20461;-72
2024/01/31 14:54:10;;;;;;;6.43;2.37;;;8.40;99.90;;;;;;5028348;28;20446;-71
2024/01/31 14:56:46;;;;;;;2.10;1.70;;;8.50;99.90;;;;;;5022118;28;20837;-70